createdAt,value
2019-03-05T00:02:33.350Z,7.30
2019-03-05T00:05:35.269Z,6.43
2019-03-05T00:08:37.235Z,6.83
2019-03-05T00:11:39.235Z,7.83
2019-03-05T00:14:41.150Z,9.33
2019-03-05T00:17:43.048Z,7.83
2019-03-05T00:20:45.060Z,11.13
2019-03-05T00:23:52.528Z,6.23
2019-03-05T00:26:54.663Z,8.50
2019-03-05T00:30:19.861Z,13.53
2019-03-05T00:33:48.584Z,13.47
2019-03-05T00:37:06.469Z,11.50
2019-03-05T00:40:12.089Z,8.83
2019-03-05T00:43:29.709Z,10.00
2019-03-05T00:46:38.123Z,14.13
2019-03-05T00:50:18.534Z,7.27
2019-03-05T00:53:26.778Z,11.17
2019-03-05T00:56:54.950Z,11.07
2019-03-05T01:00:18.303Z,10.20
2019-03-05T01:03:29.827Z,8.37
2019-03-05T01:06:31.764Z,9.80
2019-03-05T01:09:33.665Z,7.10
2019-03-05T01:12:35.947Z,9.43
2019-03-05T01:15:37.834Z,7.30
2019-03-05T01:18:39.763Z,7.13
2019-03-05T01:21:41.725Z,7.40
2019-03-05T01:24:43.674Z,10.93
2019-03-05T01:27:45.654Z,9.43
2019-03-05T01:31:01.666Z,10.63
2019-03-05T01:34:11.581Z,7.73
2019-03-05T01:37:13.550Z,12.57
2019-03-05T01:40:17.259Z,10.97
2019-03-05T01:43:19.222Z,11.10
2019-03-05T01:46:21.142Z,12.73
2019-03-05T01:49:23.980Z,10.73
2019-03-05T01:52:25.894Z,8.33
2019-03-05T01:55:28.670Z,10.43
2019-03-05T01:58:30.593Z,11.27
2019-03-05T02:01:32.823Z,12.90
2019-03-05T02:04:34.765Z,10.27
2019-03-05T02:07:37.229Z,13.87
2019-03-05T02:10:39.424Z,12.90
2019-03-05T02:13:41.338Z,12.50
2019-03-05T02:16:43.221Z,11.53
2019-03-05T02:19:45.557Z,13.33
2019-03-05T02:22:59.293Z,12.07
2019-03-05T02:26:20.152Z,10.77
2019-03-05T02:29:31.831Z,10.83
2019-03-05T02:32:49.800Z,10.63
2019-03-05T02:36:16.163Z,9.47
2019-03-05T02:39:39.587Z,13.10
2019-03-05T02:42:45.139Z,12.13
2019-03-05T02:45:53.567Z,13.30
2019-03-05T02:49:07.952Z,11.57
2019-03-05T02:52:28.644Z,8.63
2019-03-05T02:55:52.495Z,13.70
2019-03-05T02:58:54.038Z,11.10
2019-03-05T03:01:58.943Z,11.77
2019-03-05T03:05:05.422Z,9.90
2019-03-05T03:08:07.874Z,12.70
2019-03-05T03:11:09.943Z,9.63
2019-03-05T03:14:11.876Z,10.47
2019-03-05T03:17:13.833Z,9.37
2019-03-05T03:20:15.972Z,12.77
2019-03-05T03:23:19.188Z,11.10
2019-03-05T03:26:21.235Z,12.40
2019-03-05T03:29:23.314Z,11.27
2019-03-05T03:32:25.238Z,11.27
2019-03-05T03:35:27.327Z,11.63
2019-03-05T03:38:29.228Z,9.30
2019-03-05T03:41:31.203Z,10.27
2019-03-05T03:44:33.138Z,10.17
2019-03-05T03:47:35.139Z,10.00
2019-03-05T03:50:37.075Z,10.67
2019-03-05T03:53:39.149Z,10.40
2019-03-05T03:56:41.063Z,10.80
2019-03-05T03:59:43.029Z,11.40
2019-03-05T04:02:45.091Z,13.40
2019-03-05T04:05:47.150Z,12.07
2019-03-05T04:08:49.783Z,11.73
2019-03-05T04:11:51.741Z,13.47
2019-03-05T04:14:53.641Z,13.03
2019-03-05T04:17:55.639Z,12.90
2019-03-05T04:20:57.573Z,15.70
2019-03-05T04:23:59.603Z,12.10
2019-03-05T04:27:01.520Z,10.53
2019-03-05T04:30:12.539Z,13.57
2019-03-05T04:33:14.495Z,10.63
2019-03-05T04:36:16.609Z,12.30
2019-03-05T04:39:18.508Z,12.90
2019-03-05T04:42:20.496Z,12.80
2019-03-05T04:45:32.785Z,12.40
2019-03-05T04:48:34.670Z,10.27
2019-03-05T04:51:41.272Z,15.07
2019-03-05T04:54:43.250Z,12.27
2019-03-05T04:57:46.482Z,12.37
2019-03-05T05:00:49.059Z,12.03
2019-03-05T05:03:51.012Z,11.33
2019-03-05T05:06:53.054Z,12.80
2019-03-05T05:09:55.019Z,11.30
2019-03-05T05:12:56.949Z,12.10
2019-03-05T05:15:58.858Z,12.53
2019-03-05T05:19:00.807Z,13.17
2019-03-05T05:22:02.712Z,18.37
2019-03-05T05:25:05.484Z,15.63
2019-03-05T05:28:07.443Z,17.53
2019-03-05T05:31:09.567Z,14.73
2019-03-05T05:34:11.517Z,13.73
2019-03-05T05:37:13.566Z,13.40
2019-03-05T05:40:44.841Z,12.63
2019-03-05T05:43:46.843Z,12.70
2019-03-05T05:46:48.761Z,14.77
2019-03-05T05:49:50.749Z,14.27
2019-03-05T05:52:52.665Z,12.33
2019-03-05T05:55:54.638Z,11.77
2019-03-05T05:58:56.594Z,12.77
2019-03-05T06:01:58.861Z,16.10
2019-03-05T06:05:00.850Z,12.57
2019-03-05T06:08:02.903Z,11.00
2019-03-05T06:11:04.871Z,11.03
2019-03-05T06:14:06.800Z,12.43
2019-03-05T06:17:08.783Z,12.97
2019-03-05T06:20:12.550Z,11.17
2019-03-05T06:23:14.647Z,9.97
2019-03-05T06:26:16.728Z,11.57
2019-03-05T06:29:18.726Z,9.60
2019-03-05T06:32:20.768Z,13.33
2019-03-05T06:35:22.757Z,9.97
2019-03-05T06:38:25.096Z,9.73
2019-03-05T06:41:27.083Z,12.83
2019-03-05T06:44:29.058Z,8.97
2019-03-05T06:47:30.985Z,8.67
2019-03-05T06:50:33.012Z,11.10
2019-03-05T06:53:35.015Z,9.40
2019-03-05T06:56:37.039Z,11.20
2019-03-05T06:59:40.374Z,10.77
2019-03-05T07:02:42.436Z,15.97
2019-03-05T07:06:21.680Z,13.77
2019-03-05T07:09:27.352Z,11.47
2019-03-05T07:12:33.012Z,9.67
2019-03-05T07:15:50.631Z,10.27
2019-03-05T07:18:54.879Z,9.37
2019-03-05T07:22:09.443Z,15.10
2019-03-05T07:25:11.451Z,9.07
2019-03-05T07:28:13.484Z,8.03
2019-03-05T07:31:15.446Z,7.50
2019-03-05T07:34:22.352Z,8.20
2019-03-05T07:37:24.347Z,7.77
2019-03-05T07:40:26.344Z,7.77
2019-03-05T07:43:36.209Z,8.13
2019-03-05T07:46:32.258Z,10.40
2019-03-05T07:49:43.328Z,7.67
2019-03-05T07:52:39.932Z,7.23
2019-03-05T07:55:41.877Z,6.73
2019-03-05T07:58:45.008Z,5.50
2019-03-05T08:01:46.934Z,5.73
2019-03-05T08:04:49.010Z,5.37
2019-03-05T08:07:50.974Z,7.83
2019-03-05T08:10:53.201Z,6.67
2019-03-05T08:14:24.480Z,3.90
2019-03-05T08:17:26.434Z,6.70
2019-03-05T08:20:28.525Z,4.00
2019-03-05T08:23:30.528Z,4.40
2019-03-05T08:26:32.459Z,3.97
2019-03-05T08:29:34.448Z,5.50
2019-03-05T08:32:36.414Z,2.60
2019-03-05T08:35:38.507Z,7.03
2019-03-05T08:38:40.447Z,3.93
2019-03-05T08:41:42.424Z,4.07
2019-03-05T08:44:50.542Z,3.27
2019-03-05T08:47:48.412Z,3.80
2019-03-05T08:50:50.316Z,4.47
2019-03-05T08:53:52.883Z,5.70
2019-03-05T08:56:54.852Z,3.27
2019-03-05T08:59:56.896Z,5.47
2019-03-05T09:02:58.888Z,3.40
2019-03-05T09:06:00.857Z,6.53
2019-03-05T09:09:05.327Z,8.33
2019-03-05T09:12:09.292Z,6.10
2019-03-05T09:15:16.942Z,5.30
2019-03-05T09:18:18.928Z,4.03
2019-03-05T09:21:20.879Z,6.03
2019-03-05T09:24:22.859Z,2.70
2019-03-05T09:27:24.873Z,7.27
2019-03-05T09:30:26.875Z,2.23
2019-03-05T09:33:28.839Z,4.00
2019-03-05T09:36:31.031Z,3.73
2019-03-05T09:39:33.016Z,4.93
2019-03-05T09:42:39.790Z,3.87
2019-03-05T09:45:38.903Z,3.90
2019-03-05T09:48:40.946Z,3.17
2019-03-05T09:51:42.968Z,2.60
2019-03-05T09:54:45.007Z,2.40
2019-03-05T09:57:48.933Z,5.77
2019-03-05T10:00:51.537Z,5.00
2019-03-05T10:03:54.278Z,4.90
2019-03-05T10:06:56.240Z,3.50
2019-03-05T10:09:58.313Z,3.67
2019-03-05T10:13:04.289Z,7.47
2019-03-05T10:16:05.249Z,4.10
2019-03-05T10:19:08.387Z,4.03
2019-03-05T10:22:10.387Z,5.00
2019-03-05T10:25:14.940Z,3.40
2019-03-05T10:28:16.957Z,2.23
2019-03-05T10:31:19.035Z,8.33
2019-03-05T10:34:21.112Z,4.80
2019-03-05T10:37:23.495Z,3.47
2019-03-05T10:40:37.565Z,4.73
2019-03-05T10:43:39.658Z,2.60
2019-03-05T10:46:42.472Z,4.43
2019-03-05T10:49:44.472Z,4.97
2019-03-05T10:52:46.543Z,4.47
2019-03-05T10:55:48.523Z,4.13
2019-03-05T10:58:50.575Z,5.53
2019-03-05T11:01:52.671Z,7.33
2019-03-05T11:04:54.688Z,3.27
2019-03-05T11:07:56.648Z,4.80
2019-03-05T11:10:59.603Z,3.30
2019-03-05T11:14:01.571Z,3.10
2019-03-05T11:17:03.692Z,4.40
2019-03-05T11:20:08.072Z,3.20
2019-03-05T11:23:11.893Z,3.60
2019-03-05T11:26:14.169Z,3.43
2019-03-05T11:29:16.603Z,8.03
2019-03-05T11:32:18.490Z,3.83
2019-03-05T11:35:23.477Z,1.93
2019-03-05T11:38:25.556Z,2.90
2019-03-05T11:41:27.510Z,1.30
2019-03-05T11:44:29.518Z,7.50
2019-03-05T11:47:31.528Z,2.60
2019-03-05T11:50:33.429Z,3.47
2019-03-05T11:53:35.467Z,1.93
2019-03-05T11:56:37.563Z,3.87
2019-03-05T11:59:39.650Z,3.50
2019-03-05T12:02:41.636Z,2.17
2019-03-05T12:05:43.609Z,2.37
2019-03-05T12:08:45.599Z,2.07
2019-03-05T12:11:47.556Z,6.20
2019-03-05T12:14:49.606Z,4.70
2019-03-05T12:17:51.605Z,1.83
2019-03-05T12:20:53.549Z,3.17
2019-03-05T12:23:55.506Z,2.47
2019-03-05T12:26:57.512Z,1.47
2019-03-05T12:29:59.480Z,4.50
2019-03-05T12:33:01.437Z,3.57
2019-03-05T12:36:03.387Z,3.10
2019-03-05T12:39:07.650Z,25.57
2019-03-05T12:42:09.963Z,19.00
2019-03-05T12:45:16.922Z,5.40
2019-03-05T12:48:18.879Z,4.13
2019-03-05T12:51:20.929Z,11.13
2019-03-05T12:54:22.837Z,2.27
2019-03-05T12:57:25.439Z,4.13
2019-03-05T13:00:30.206Z,2.20
2019-03-05T13:03:32.156Z,1.23
2019-03-05T13:06:34.099Z,2.57
2019-03-05T13:09:37.161Z,1.93
2019-03-05T13:12:40.146Z,4.53
2019-03-05T13:15:42.736Z,5.53
2019-03-05T13:18:44.753Z,6.07
2019-03-05T13:21:48.554Z,9.50
2019-03-05T13:24:51.306Z,6.70
2019-03-05T13:27:53.556Z,4.27
2019-03-05T13:30:55.605Z,3.80
2019-03-05T13:33:57.523Z,11.90
2019-03-05T13:37:00.875Z,1.03
2019-03-05T13:40:06.325Z,1.53
2019-03-05T13:43:08.478Z,2.30
2019-03-05T13:46:10.440Z,3.00
2019-03-05T13:49:40.773Z,3.10
2019-03-05T13:52:44.826Z,2.27
2019-03-05T13:56:07.084Z,2.17
2019-03-05T13:59:33.707Z,1.67
2019-03-05T14:02:56.887Z,4.07
2019-03-05T14:06:28.201Z,2.47
2019-03-05T14:09:30.350Z,5.07
2019-03-05T14:12:32.289Z,5.43
2019-03-05T14:15:35.287Z,2.10
2019-03-05T14:18:37.370Z,4.63
2019-03-05T14:21:39.508Z,2.57
2019-03-05T14:24:41.585Z,4.13
2019-03-05T14:27:43.714Z,4.47
2019-03-05T14:30:45.836Z,3.97
2019-03-05T14:33:50.317Z,3.87
2019-03-05T14:36:51.817Z,5.40
2019-03-05T14:39:53.849Z,5.77
2019-03-05T14:42:56.082Z,3.93
2019-03-05T14:45:58.812Z,4.10
2019-03-05T14:49:00.825Z,2.63
2019-03-05T14:52:03.409Z,2.63
2019-03-05T14:55:08.083Z,4.33
2019-03-05T14:58:10.311Z,3.93
2019-03-05T15:01:12.936Z,4.00
2019-03-05T15:04:14.960Z,3.90
2019-03-05T15:07:17.037Z,10.67
2019-03-05T15:10:19.145Z,6.00
2019-03-05T15:13:21.303Z,2.27
2019-03-05T15:16:23.419Z,8.90
2019-03-05T15:19:25.538Z,8.40
2019-03-05T15:22:27.558Z,4.13
2019-03-05T15:25:29.642Z,6.03
2019-03-05T15:28:31.695Z,2.43
2019-03-05T15:31:33.704Z,4.10
2019-03-05T15:34:35.666Z,3.30
2019-03-05T15:37:38.160Z,5.20
2019-03-05T15:40:40.408Z,10.03
2019-03-05T15:43:44.051Z,4.10
2019-03-05T15:46:46.153Z,3.83
2019-03-05T15:49:48.388Z,5.77
2019-03-05T15:52:50.494Z,5.63
2019-03-05T15:55:53.804Z,3.83
2019-03-05T15:58:56.123Z,5.53
2019-03-05T16:01:58.688Z,8.73
2019-03-05T16:05:11.136Z,8.40
2019-03-05T16:08:04.917Z,7.67
2019-03-05T16:11:07.050Z,6.60
2019-03-05T16:14:08.975Z,7.83
2019-03-05T16:17:10.937Z,4.97
2019-03-05T16:20:15.360Z,6.67
2019-03-05T16:23:17.463Z,5.20
2019-03-05T16:26:23.751Z,6.90
2019-03-05T16:29:24.799Z,5.53
2019-03-05T16:32:28.643Z,4.53
2019-03-05T16:35:36.495Z,6.90
2019-03-05T16:38:59.708Z,8.40
2019-03-05T16:42:18.713Z,19.57
2019-03-05T16:45:26.208Z,9.13
2019-03-05T16:48:33.160Z,5.37
2019-03-05T16:51:42.877Z,5.87
2019-03-05T16:54:49.449Z,8.03
2019-03-05T16:58:12.035Z,9.63
2019-03-05T17:01:17.867Z,8.90
2019-03-05T17:04:30.986Z,4.73
2019-03-05T17:07:37.734Z,8.57
2019-03-05T17:10:41.622Z,6.30
2019-03-05T17:13:43.637Z,6.10
2019-03-05T17:16:46.709Z,8.47
2019-03-05T17:19:48.993Z,13.80
2019-03-05T17:22:51.001Z,17.37
2019-03-05T17:25:52.973Z,19.13
2019-03-05T17:28:55.747Z,27.20
2019-03-05T17:31:59.551Z,18.60
2019-03-05T17:35:04.961Z,16.20
2019-03-05T17:38:07.360Z,7.07
2019-03-05T17:41:11.688Z,6.67
2019-03-05T17:44:16.853Z,7.53
2019-03-05T17:47:19.280Z,9.53
2019-03-05T17:50:22.477Z,7.13
2019-03-05T17:53:26.357Z,6.10
2019-03-05T17:56:30.825Z,5.27
2019-03-05T17:59:32.817Z,6.07
2019-03-05T18:02:35.595Z,6.40
2019-03-05T18:05:39.354Z,7.67
2019-03-05T18:08:42.824Z,14.43
2019-03-05T18:11:44.803Z,8.57
2019-03-05T18:14:47.236Z,7.80
2019-03-05T18:17:49.988Z,6.67
2019-03-05T18:20:53.144Z,5.73
2019-03-05T18:23:55.147Z,6.47
2019-03-05T18:26:57.173Z,5.00
2019-03-05T18:29:59.110Z,9.07
2019-03-05T18:33:01.101Z,38.23
2019-03-05T18:36:03.440Z,36.73
2019-03-05T18:39:06.601Z,27.13
2019-03-05T18:42:11.556Z,19.53
2019-03-05T18:45:19.644Z,11.93
2019-03-05T18:48:21.627Z,20.00
2019-03-05T18:51:25.934Z,32.40
2019-03-05T18:54:27.919Z,44.53
2019-03-05T18:57:31.808Z,21.83
2019-03-05T19:00:35.820Z,14.80
2019-03-05T19:03:42.000Z,13.17
2019-03-05T19:06:44.278Z,16.87
2019-03-05T19:09:47.150Z,19.27
2019-03-05T19:12:49.475Z,16.77
2019-03-05T19:15:51.436Z,20.67
2019-03-05T19:18:53.400Z,22.57
2019-03-05T19:21:55.687Z,21.80
2019-03-05T19:24:57.767Z,14.20
2019-03-05T19:28:04.484Z,15.97
2019-03-05T19:31:09.383Z,10.83
2019-03-05T19:34:12.511Z,17.57
2019-03-05T19:37:17.014Z,14.23
2019-03-05T19:40:25.784Z,11.53
2019-03-05T19:43:27.776Z,10.33
2019-03-05T19:46:29.813Z,14.03
2019-03-05T19:49:34.060Z,11.10
2019-03-05T19:52:37.759Z,15.40
2019-03-05T19:55:40.564Z,15.77
2019-03-05T19:58:44.290Z,14.37
2019-03-05T20:01:50.043Z,14.50
2019-03-05T20:04:52.037Z,14.03
2019-03-05T20:07:55.829Z,12.57
2019-03-05T20:10:57.914Z,12.70
2019-03-05T20:14:00.879Z,13.07
2019-03-05T20:17:03.882Z,15.60
2019-03-05T20:20:09.036Z,14.13
2019-03-05T20:23:12.021Z,19.70
2019-03-05T20:26:16.207Z,15.03
2019-03-05T20:29:18.873Z,15.43
2019-03-05T20:32:23.069Z,12.10
2019-03-05T20:35:27.155Z,17.83
2019-03-05T20:38:29.147Z,15.10
2019-03-05T20:41:31.586Z,17.67
2019-03-05T20:44:36.766Z,16.27
2019-03-05T20:47:40.513Z,23.03
2019-03-05T20:50:42.551Z,25.37
2019-03-05T20:53:44.508Z,17.60
2019-03-05T20:56:47.874Z,20.20
2019-03-05T20:59:49.871Z,22.87
2019-03-05T21:02:54.946Z,21.40
2019-03-05T21:06:00.639Z,21.00
2019-03-05T21:09:06.412Z,29.23
2019-03-05T21:12:12.319Z,26.37
2019-03-05T21:15:19.064Z,12.77
2019-03-05T21:18:21.203Z,11.90
2019-03-05T21:21:23.810Z,11.33
2019-03-05T21:24:27.649Z,7.57
2019-03-05T21:27:31.532Z,14.40
2019-03-05T21:30:36.061Z,25.10
2019-03-05T21:33:38.230Z,21.57
2019-03-05T21:36:40.275Z,20.13
2019-03-05T21:39:42.200Z,13.63
2019-03-05T21:42:48.052Z,16.00
2019-03-05T21:45:53.599Z,13.93
2019-03-05T21:48:56.603Z,12.83
2019-03-05T21:51:59.042Z,20.10
2019-03-05T21:55:00.992Z,14.53
2019-03-05T21:58:03.087Z,14.93
2019-03-05T22:01:05.082Z,15.23
2019-03-05T22:04:07.043Z,12.10
2019-03-05T22:07:08.974Z,17.67
2019-03-05T22:10:14.418Z,29.47
2019-03-05T22:13:16.350Z,24.93
2019-03-05T22:16:18.271Z,15.00
2019-03-05T22:19:21.432Z,16.70
2019-03-05T22:22:23.666Z,14.43
2019-03-05T22:25:25.708Z,15.67
2019-03-05T22:28:27.668Z,14.70
2019-03-05T22:31:29.672Z,14.90
2019-03-05T22:34:31.605Z,16.23
2019-03-05T22:37:33.542Z,16.00
2019-03-05T22:40:35.476Z,14.93
2019-03-05T22:43:37.474Z,12.50
2019-03-05T22:46:39.422Z,13.57
2019-03-05T22:49:41.373Z,11.77
2019-03-05T22:52:43.420Z,16.80
2019-03-05T22:55:46.424Z,16.43
2019-03-05T22:58:50.339Z,16.57
2019-03-05T23:01:52.716Z,15.73
2019-03-05T23:04:55.157Z,12.47
2019-03-05T23:07:59.004Z,12.10
2019-03-05T23:11:01.192Z,12.07
2019-03-05T23:14:03.357Z,12.80
2019-03-05T23:17:05.668Z,12.20
2019-03-05T23:20:12.316Z,14.73
2019-03-05T23:23:15.898Z,11.87
2019-03-05T23:26:19.002Z,9.87
2019-03-05T23:29:23.033Z,10.33
2019-03-05T23:32:25.073Z,11.33
2019-03-05T23:35:27.103Z,9.97
2019-03-05T23:38:29.114Z,8.63
2019-03-05T23:41:31.021Z,10.70
2019-03-05T23:44:32.997Z,10.10
2019-03-05T23:47:34.916Z,14.43
2019-03-05T23:50:36.879Z,13.30
2019-03-05T23:53:38.897Z,9.67
2019-03-05T23:56:40.898Z,12.80
2019-03-05T23:59:42.886Z,15.37
